Wezembeek-Oppem, Belgium
Current Conditions -  °F | °C
As of 4:20 AM on Saturday 29 Nov 2014 (Local Time) from EBBR Reporting Station
Clear Clear  
Wind Chill: 34°   Ceiling: Unl
Heat Index: 37°   Visibility: 6mi
Dew Point: 34°   Wind: 5mph
Humidity: 87%   Direction: 110°ESE
Pressure: 29.85"   Gusts: NA
Location:  50.84°N, 4.49°E
Report Text: EBBR 290320Z 11004KT CAVOK 03/01 Q1011 NOSIG
Loading
Personal Weather Stations






























Interactive Weather Map New forecast layout! Learn more

10-Day Weather Forecast

Advertisements
Track Severe Weather on mobile